Time;durP1;ratioP1;P1;durP2;ratioP2;P2;SDS_P1;SDS_P2;PMS_P1;PMS_P2;Temp;Humidity;BMP_temperature;BMP_pressure;BME280_temperature;BME280_humidity;BME280_pressure;Samples;Min_cycle;Max_cycle;Signal;HPM_P1;HPM_P2
2021/10/13 00:00:12;;;;;;;4.50;2.22;;;;;;;5.26;100.00;95585.38;5068242;28;20055;-77
2021/10/13 00:02:57;;;;;;;9.23;2.97;;;;;;;5.27;100.00;95592.19;5054079;28;20048;-77
2021/10/13 00:05:23;;;;;;;17.70;7.47;;;;;;;5.34;100.00;95595.47;5061890;28;20403;-78
2021/10/13 00:07:48;;;;;;;5.40;2.17;;;;;;;5.23;100.00;95596.28;5035152;28;20037;-77
2021/10/13 00:10:14;;;;;;;5.28;2.95;;;;;;;5.35;100.00;95604.84;5040673;28;20073;-78
2021/10/13 00:12:39;;;;;;;5.82;2.47;;;;;;;5.26;100.00;95601.03;5049248;28;20041;-78
2021/10/13 00:15:10;;;;;;;8.95;2.15;;;;;;;5.28;100.00;95604.19;5038489;28;20050;-78
2021/10/13 00:17:35;;;;;;;7.00;2.00;;;;;;;5.17;100.00;95597.22;5049235;28;20029;-79
2021/10/13 00:20:02;;;;;;;3.83;1.75;;;;;;;5.21;100.00;95608.78;5068043;28;20060;-78
2021/10/13 00:22:28;;;;;;;3.97;2.30;;;;;;;5.11;100.00;95617.19;5052016;28;20044;-78
2021/10/13 00:24:53;;;;;;;3.80;1.90;;;;;;;5.07;100.00;95613.47;5037520;28;20517;-78
2021/10/13 00:27:19;;;;;;;4.03;1.90;;;;;;;5.15;100.00;95612.31;5034323;28;20106;-78
2021/10/13 00:29:45;;;;;;;4.93;1.90;;;;;;;5.29;100.00;95621.44;5051730;28;20045;-79
2021/10/13 00:32:10;;;;;;;4.50;2.20;;;;;;;5.19;100.00;95610.81;5052702;28;20045;-78
2021/10/13 00:34:36;;;;;;;6.28;2.40;;;;;;;5.26;100.00;95611.47;5057782;28;20033;-78
2021/10/13 00:37:02;;;;;;;6.35;2.40;;;;;;;5.16;100.00;95613.91;5052835;28;20055;-78
2021/10/13 00:39:28;;;;;;;4.45;2.20;;;;;;;5.15;100.00;95625.34;5061500;28;20040;-78
2021/10/13 00:41:54;;;;;;;5.00;2.60;;;;;;;5.14;100.00;95628.97;5050300;28;20124;-78
2021/10/13 00:44:19;;;;;;;7.18;2.45;;;;;;;5.08;100.00;95624.69;5051120;28;20492;-78
2021/10/13 00:46:45;;;;;;;5.30;2.80;;;;;;;5.10;100.00;95638.28;5033366;28;20052;-78
2021/10/13 00:49:11;;;;;;;5.43;2.60;;;;;;;5.11;100.00;95640.66;5051642;28;20446;-77
2021/10/13 00:51:36;;;;;;;6.20;3.17;;;;;;;5.12;100.00;95642.25;5053353;28;20402;-78
2021/10/13 00:54:02;;;;;;;7.25;3.60;;;;;;;5.18;100.00;95643.94;5050062;28;20041;-77
2021/10/13 00:56:28;;;;;;;7.70;3.40;;;;;;;5.21;100.00;95650.50;5038518;28;20040;-77
2021/10/13 00:58:53;;;;;;;6.43;3.63;;;;;;;5.23;100.00;95653.69;5054457;28;20041;-77
2021/10/13 01:01:29;;;;;;;9.38;3.90;;;;;;;5.22;100.00;95657.31;5052843;28;20119;-77
2021/10/13 01:04:19;;;;;;;6.88;3.67;;;;;;;5.26;100.00;95662.84;5032185;28;20040;-77
2021/10/13 01:07:03;;;;;;;9.00;4.80;;;;;;;5.20;100.00;95669.78;5052344;28;20410;-78
2021/10/13 01:09:43;;;;;;;11.00;4.50;;;;;;;5.14;100.00;95673.34;5052020;28;20037;-78
2021/10/13 01:12:30;;;;;;;9.23;4.65;;;;;;;5.23;100.00;95666.75;5050919;28;20029;-77
2021/10/13 01:15:10;;;;;;;8.55;4.72;;;;;;;5.34;100.00;95676.38;5048363;28;20048;-78
2021/10/13 01:17:41;;;;;;;8.77;4.63;;;;;;;5.28;100.00;95682.47;5043995;28;20065;-78
2021/10/13 01:20:25;;;;;;;11.90;4.90;;;;;;;5.21;100.00;95692.25;5049498;28;20052;-78
2021/10/13 01:23:23;;;;;;;13.30;5.18;;;;;;;5.27;100.00;95680.91;5059900;28;20044;-78
2021/10/13 01:26:10;;;;;;;10.20;5.45;;;;;;;5.28;100.00;95686.91;5050629;28;20041;-77
2021/10/13 01:28:39;;;;;;;11.80;5.65;;;;;;;5.26;100.00;95688.94;5048424;28;20518;-78
2021/10/13 01:31:19;;;;;;;14.07;5.72;;;;;;;5.22;100.00;95688.63;5051110;28;20123;-78
2021/10/13 01:34:13;;;;;;;11.18;5.53;;;;;;;5.20;100.00;95699.31;5044972;28;20045;-78
2021/10/13 01:36:49;;;;;;;13.98;5.85;;;;;;;5.18;100.00;95693.50;5053816;28;20055;-78
2021/10/13 01:39:15;;;;;;;12.38;5.93;;;;;;;5.20;100.00;95693.28;5047167;28;20521;-77
2021/10/13 01:41:45;;;;;;;11.43;5.85;;;;;;;5.16;100.00;95700.00;5043323;28;20041;-78
2021/10/13 01:44:13;;;;;;;12.23;6.15;;;;;;;5.23;100.00;95705.88;5051337;28;20550;-78
2021/10/13 01:46:42;;;;;;;10.63;5.72;;;;;;;5.20;100.00;95711.53;5051913;28;20033;-78
2021/10/13 01:49:08;;;;;;;13.02;6.30;;;;;;;5.16;100.00;95715.66;5050003;28;20045;-78
2021/10/13 01:51:34;;;;;;;12.85;6.72;;;;;;;5.15;100.00;95714.84;5044749;28;20044;-78
2021/10/13 01:54:01;;;;;;;14.85;6.70;;;;;;;5.13;100.00;95721.31;5049056;28;20116;-79
2021/10/13 01:56:28;;;;;;;14.00;6.38;;;;;;;5.16;100.00;95715.66;5031828;28;20494;-78
2021/10/13 01:59:02;;;;;;;12.00;6.68;;;;;;;5.21;100.00;95715.75;5050761;28;20041;-78
2021/10/13 02:01:31;;;;;;;12.90;6.80;;;;;;;5.17;100.00;95727.66;5069933;28;20704;-79
2021/10/13 02:04:03;;;;;;;10.95;6.25;;;;;;;5.14;100.00;95731.53;5041234;28;20449;-79
2021/10/13 02:06:31;;;;;;;12.48;6.18;;;;;;;5.17;100.00;95738.09;5053897;28;20436;-79
2021/10/13 02:08:59;;;;;;;13.98;6.32;;;;;;;5.23;100.00;95731.97;5048051;28;20040;-78
2021/10/13 02:11:26;;;;;;;14.68;6.43;;;;;;;5.19;100.00;95725.63;5054337;28;20037;-79
2021/10/13 02:13:59;;;;;;;14.75;6.80;;;;;;;5.17;100.00;95735.47;5052004;28;20055;-79
2021/10/13 02:16:27;;;;;;;13.88;6.85;;;;;;;5.17;100.00;95738.09;5036897;28;20042;-79
2021/10/13 02:18:55;;;;;;;13.55;7.18;;;;;;;5.19;100.00;95738.66;5047251;28;20402;-79
2021/10/13 02:21:22;;;;;;;13.73;6.40;;;;;;;5.23;100.00;95747.63;5050039;28;20152;-77
2021/10/13 02:23:49;;;;;;;12.90;6.85;;;;;;;5.24;100.00;95745.81;5047463;28;20040;-78
2021/10/13 02:26:25;;;;;;;15.32;6.75;;;;;;;5.19;100.00;95736.06;5030729;28;20033;-80
2021/10/13 02:28:56;;;;;;;13.48;6.45;;;;;;;5.28;100.00;95747.72;5045473;28;20151;-78
2021/10/13 02:31:21;;;;;;;13.77;6.63;;;;;;;5.22;100.00;95756.47;5043485;28;20111;-79
2021/10/13 02:33:47;;;;;;;14.77;7.00;;;;;;;5.22;100.00;95751.25;5049609;28;20461;-78
2021/10/13 02:36:12;;;;;;;15.27;7.18;;;;;;;5.15;100.00;95758.41;5052776;28;20041;-79
2021/10/13 02:38:38;;;;;;;17.42;6.90;;;;;;;5.14;100.00;95756.81;5051626;28;20045;-78
2021/10/13 02:41:04;;;;;;;16.13;7.25;;;;;;;5.15;100.00;95763.63;5046215;28;20053;-78
2021/10/13 02:43:29;;;;;;;12.82;6.43;;;;;;;5.24;100.00;95770.06;5045695;28;20045;-78
2021/10/13 02:46:40;;;;;;;15.15;7.28;;;;;;;5.21;100.00;95780.97;5047945;28;20056;-78
2021/10/13 02:49:22;;;;;;;14.40;6.68;;;;;;;5.16;100.00;95778.28;5049545;28;20076;-77
2021/10/13 02:51:58;;;;;;;15.68;7.07;;;;;;;5.12;100.00;95787.56;5050404;28;20041;-78
2021/10/13 02:54:32;;;;;;;15.23;6.45;;;;;;;5.05;100.00;95779.84;5045469;28;20700;-78
2021/10/13 02:57:01;;;;;;;13.30;6.60;;;;;;;5.04;100.00;95786.06;5047363;28;20049;-79
2021/10/13 02:59:42;;;;;;;10.30;5.70;;;;;;;4.99;100.00;95781.53;5055588;28;20041;-78
2021/10/13 03:02:13;;;;;;;10.30;5.00;;;;;;;4.98;100.00;95793.00;5070071;28;20040;-77
2021/10/13 03:04:41;;;;;;;10.05;5.18;;;;;;;4.91;100.00;95786.31;5032766;28;20046;-79
2021/10/13 03:07:09;;;;;;;10.82;4.20;;;;;;;4.83;100.00;95790.06;5073827;28;20079;-78
2021/10/13 03:09:39;;;;;;;8.82;4.07;;;;;;;4.80;100.00;95795.72;5057618;28;20045;-77
2021/10/13 03:12:08;;;;;;;9.00;3.65;;;;;;;4.78;100.00;95792.53;5046529;28;20458;-78
2021/10/13 03:14:37;;;;;;;9.30;3.92;;;;;;;4.77;100.00;95790.94;5046882;28;20040;-78
2021/10/13 03:17:04;;;;;;;6.85;3.63;;;;;;;4.87;100.00;95796.41;5055704;28;20067;-78
2021/10/13 03:19:34;;;;;;;7.00;3.92;;;;;;;4.80;100.00;95785.28;5058647;28;20044;-79
2021/10/13 03:22:01;;;;;;;8.00;4.07;;;;;;;4.76;100.00;95794.59;5046214;28;20037;-77
2021/10/13 03:24:26;;;;;;;8.80;4.25;;;;;;;4.69;100.00;95795.47;5051366;28;20036;-78
2021/10/13 03:26:52;;;;;;;8.32;4.75;;;;;;;4.66;100.00;95795.13;5052001;28;20399;-78
2021/10/13 03:29:18;;;;;;;12.20;5.20;;;;;;;4.68;100.00;95804.31;5052663;28;20487;-78
2021/10/13 03:31:44;;;;;;;9.30;4.80;;;;;;;4.71;100.00;95807.47;5047969;28;20091;-78
2021/10/13 03:34:12;;;;;;;10.57;5.25;;;;;;;4.64;100.00;95803.19;5052145;28;20047;-78
2021/10/13 03:36:44;;;;;;;10.70;6.05;;;;;;;4.69;100.00;95811.09;5053467;28;20037;-78
2021/10/13 03:39:11;;;;;;;12.48;5.72;;;;;;;4.63;100.00;95809.41;5053578;28;20045;-78
2021/10/13 03:41:37;;;;;;;12.02;6.00;;;;;;;4.64;100.00;95813.59;5051531;28;20045;-78
2021/10/13 03:44:03;;;;;;;12.32;6.20;;;;;;;4.64;100.00;95813.59;5034978;28;20056;-77
2021/10/13 03:46:29;;;;;;;12.73;5.78;;;;;;;4.64;100.00;95821.44;5042616;28;20033;-78
2021/10/13 03:48:56;;;;;;;12.40;6.15;;;;;;;4.66;100.00;95826.41;5044073;28;20034;-78
2021/10/13 03:51:21;;;;;;;13.85;6.28;;;;;;;4.73;100.00;95841.97;5040752;28;20716;-77
2021/10/13 03:53:48;;;;;;;13.55;6.00;;;;;;;4.69;100.00;95831.97;5051175;28;20041;-77
2021/10/13 03:56:14;;;;;;;12.45;6.35;;;;;;;4.76;100.00;95831.09;5050247;28;20109;-78
2021/10/13 03:58:40;;;;;;;11.50;5.88;;;;;;;4.80;100.00;95834.84;5053315;28;20048;-79
2021/10/13 04:01:06;;;;;;;12.43;5.75;;;;;;;4.85;100.00;95834.94;5053614;28;20048;-79
2021/10/13 04:03:31;;;;;;;13.02;5.93;;;;;;;4.80;100.00;95847.88;5050592;28;20093;-78
2021/10/13 04:05:57;;;;;;;10.25;5.15;;;;;;;4.74;100.00;95848.75;5069704;28;20045;-77
2021/10/13 04:08:23;;;;;;;10.63;5.55;;;;;;;4.77;100.00;95851.72;5055001;28;20052;-78
2021/10/13 04:10:48;;;;;;;14.15;5.57;;;;;;;4.81;100.00;95854.66;5051652;28;20041;-78
2021/10/13 04:13:14;;;;;;;10.82;5.43;;;;;;;4.74;100.00;95848.75;5053893;28;20037;-79
2021/10/13 04:15:39;;;;;;;11.07;6.05;;;;;;;4.69;100.00;95858.03;5052119;28;20045;-78
2021/10/13 04:18:05;;;;;;;14.23;6.45;;;;;;;4.72;100.00;95858.63;5051807;28;20052;-77
2021/10/13 04:20:30;;;;;;;16.75;6.70;;;;;;;4.68;100.00;95861.69;5047516;28;20055;-79
2021/10/13 04:22:56;;;;;;;13.98;7.35;;;;;;;4.74;100.00;95859.19;5045772;28;20766;-78
2021/10/13 04:25:22;;;;;;;13.38;7.00;;;;;;;4.75;100.00;95858.16;5036833;28;20049;-78
2021/10/13 04:27:48;;;;;;;17.92;7.72;;;;;;;4.78;100.00;95870.75;5052005;28;20044;-79
2021/10/13 04:30:14;;;;;;;14.30;7.93;;;;;;;4.75;100.00;95866.00;5051973;28;20037;-78
2021/10/13 04:32:39;;;;;;;15.80;7.75;;;;;;;4.84;100.00;95865.44;5045930;28;20048;-78
2021/10/13 04:35:05;;;;;;;17.48;8.25;;;;;;;4.78;100.00;95868.16;5032853;28;20414;-78
2021/10/13 04:37:31;;;;;;;19.70;8.27;;;;;;;4.81;100.00;95865.91;5042707;28;20080;-79
2021/10/13 04:39:56;;;;;;;18.25;8.75;;;;;;;4.83;100.00;95874.28;5035562;28;20478;-78
2021/10/13 04:42:21;;;;;;;18.10;8.85;;;;;;;4.88;100.00;95881.44;5033387;28;20115;-78
2021/10/13 04:44:47;;;;;;;22.33;9.30;;;;;;;4.88;100.00;95881.44;5055069;28;20049;-77
2021/10/13 04:47:13;;;;;;;19.33;9.48;;;;;;;4.89;100.00;95877.03;5033311;28;20051;-79
2021/10/13 04:49:38;;;;;;;18.88;9.50;;;;;;;4.88;100.00;95881.44;5051857;28;20047;-78
2021/10/13 04:52:04;;;;;;;24.67;9.23;;;;;;;4.86;100.00;95875.66;5033211;28;20122;-78
2021/10/13 04:54:30;;;;;;;18.73;9.18;;;;;;;4.84;100.00;95885.50;5048742;28;20029;-78
2021/10/13 04:56:56;;;;;;;18.13;8.50;;;;;;;4.81;100.00;95880.72;5051847;28;20052;-78
2021/10/13 04:59:21;;;;;;;19.42;9.40;;;;;;;4.85;100.00;95887.09;5063030;28;20044;-78
2021/10/13 05:01:47;;;;;;;19.15;8.85;;;;;;;4.83;100.00;95883.94;5052017;28;20055;-79
2021/10/13 05:04:12;;;;;;;20.55;8.65;;;;;;;4.76;100.00;95883.22;5045526;28;20457;-79
2021/10/13 05:06:38;;;;;;;20.05;9.98;;;;;;;4.77;100.00;95884.81;5041961;28;20048;-79
2021/10/13 05:09:03;;;;;;;19.27;9.05;;;;;;;4.83;100.00;95891.75;5051539;28;20045;-78
2021/10/13 05:11:29;;;;;;;24.73;9.93;;;;;;;4.81;100.00;95891.16;5042739;28;20107;-78
2021/10/13 05:13:54;;;;;;;22.90;9.68;;;;;;;4.75;100.00;95889.47;5020017;28;20749;-77
2021/10/13 05:16:20;;;;;;;21.98;9.77;;;;;;;4.77;100.00;95890.00;5049091;28;20391;-78
2021/10/13 05:18:45;;;;;;;19.90;8.90;;;;;;;4.73;100.00;95894.09;5057034;28;20395;-77
2021/10/13 05:21:11;;;;;;;20.30;9.73;;;;;;;4.71;100.00;95896.13;5054991;28;20052;-79
2021/10/13 05:23:37;;;;;;;24.98;10.07;;;;;;;4.74;100.00;95896.50;5048359;28;20172;-79
2021/10/13 05:26:03;;;;;;;23.25;9.85;;;;;;;4.72;100.00;95908.16;5025340;28;20049;-79
2021/10/13 05:28:29;;;;;;;19.77;9.63;;;;;;;4.66;100.00;95910.63;5050837;28;20041;-78
2021/10/13 05:30:54;;;;;;;22.48;9.43;;;;;;;4.55;100.00;95908.75;5049696;28;20040;-77
2021/10/13 05:33:19;;;;;;;21.60;9.85;;;;;;;4.53;100.00;95920.44;5031000;28;20923;-78
2021/10/13 05:35:45;;;;;;;18.70;9.40;;;;;;;4.58;100.00;95929.16;5039844;28;20068;-77
2021/10/13 05:38:11;;;;;;;18.52;9.23;;;;;;;4.50;100.00;95926.88;5050869;28;20520;-77
2021/10/13 05:40:36;;;;;;;20.92;9.95;;;;;;;4.49;100.00;95925.28;5048859;28;20063;-77
2021/10/13 05:43:02;;;;;;;22.08;9.73;;;;;;;4.47;100.00;95932.53;5050742;28;20124;-78
2021/10/13 05:45:27;;;;;;;25.08;9.95;;;;;;;4.43;100.00;95931.38;5042021;28;20037;-79
2021/10/13 05:47:53;;;;;;;20.58;9.80;;;;;;;4.44;100.00;95938.16;5062640;28;20067;-78
2021/10/13 05:50:19;;;;;;;24.67;9.90;;;;;;;4.46;100.00;95947.38;5051491;28;20045;-77
2021/10/13 05:52:44;;;;;;;20.23;9.60;;;;;;;4.47;100.00;95942.97;5035324;28;20040;-78
2021/10/13 05:55:10;;;;;;;22.27;10.23;;;;;;;4.43;100.00;95949.63;5052092;28;20102;-79
2021/10/13 05:57:37;;;;;;;20.75;10.45;;;;;;;4.44;100.00;95959.03;5054363;28;20045;-78
2021/10/13 06:00:04;;;;;;;24.27;10.45;;;;;;;4.48;100.00;95960.19;5049757;28;20051;-77
2021/10/13 06:02:32;;;;;;;21.95;10.00;;;;;;;4.48;100.00;95954.97;5046284;28;20044;-78
2021/10/13 06:04:58;;;;;;;23.27;9.52;;;;;;;4.47;100.00;95969.03;5056028;28;20048;-78
2021/10/13 06:07:23;;;;;;;26.90;10.02;;;;;;;4.55;100.00;95966.09;5063512;28;20033;-78
2021/10/13 06:09:49;;;;;;;22.77;10.02;;;;;;;4.53;100.00;95968.16;5045240;28;20137;-79
2021/10/13 06:12:14;;;;;;;19.80;10.07;;;;;;;4.60;100.00;95974.06;5048428;28;20533;-78
2021/10/13 06:14:40;;;;;;;22.42;10.43;;;;;;;4.61;100.00;95978.28;5048945;28;20045;-79
2021/10/13 06:17:06;;;;;;;21.52;10.25;;;;;;;4.68;100.00;95981.59;5047451;28;20045;-78
2021/10/13 06:19:32;;;;;;;20.42;9.80;;;;;;;4.67;100.00;95982.59;5048517;28;20103;-78
2021/10/13 06:21:57;;;;;;;23.70;10.60;;;;;;;4.62;100.00;95982.47;5049097;28;20458;-80
2021/10/13 06:24:23;;;;;;;20.20;10.10;;;;;;;4.76;100.00;95997.97;5026636;28;20041;-79
2021/10/13 06:26:49;;;;;;;23.02;10.15;;;;;;;4.82;100.00;95999.69;5036548;28;20079;-78
2021/10/13 06:29:14;;;;;;;22.27;10.40;;;;;;;4.77;100.00;95996.91;5043500;28;20087;-78
2021/10/13 06:31:40;;;;;;;22.05;10.52;;;;;;;4.74;100.00;95999.97;5046217;28;20045;-79
2021/10/13 06:34:05;;;;;;;21.33;10.13;;;;;;;4.77;100.00;96004.75;5054269;28;20037;-79
2021/10/13 06:36:31;;;;;;;20.75;9.40;;;;;;;4.73;100.00;96006.22;5049873;28;20040;-79
2021/10/13 06:38:56;;;;;;;20.08;9.50;;;;;;;4.73;100.00;96001.00;5048907;28;20110;-77
2021/10/13 06:41:25;;;;;;;19.33;10.02;;;;;;;4.72;100.00;96002.81;5047128;28;20051;-78
2021/10/13 06:43:50;;;;;;;18.23;9.80;;;;;;;4.94;100.00;96016.19;5051914;28;20046;-77
2021/10/13 06:46:16;;;;;;;25.02;10.80;;;;;;;4.90;100.00;96009.81;5053020;28;20460;-78
2021/10/13 06:48:41;;;;;;;23.73;10.88;;;;;;;4.95;100.00;96007.31;5054567;28;20052;-77
2021/10/13 06:51:07;;;;;;;28.98;11.82;;;;;;;5.02;100.00;96020.28;5053722;28;20033;-78
2021/10/13 06:53:32;;;;;;;23.77;11.25;;;;;;;5.00;100.00;96010.06;5051648;28;20033;-77
2021/10/13 06:55:59;;;;;;;27.15;11.88;;;;;;;5.06;100.00;96018.00;5031641;28;20052;-78
2021/10/13 06:58:24;;;;;;;26.38;11.50;;;;;;;4.99;100.00;96023.34;5055688;28;20072;-78
2021/10/13 07:00:50;;;;;;;24.45;11.73;;;;;;;4.96;100.00;96019.34;5052302;28;20045;-77
2021/10/13 07:03:16;;;;;;;24.67;12.25;;;;;;;5.00;100.00;96030.16;5049030;28;20041;-78
2021/10/13 07:05:41;;;;;;;27.05;12.80;;;;;;;4.98;100.00;96027.75;5051088;28;20711;-78
2021/10/13 07:08:07;;;;;;;28.85;11.88;;;;;;;5.13;100.00;96035.19;5049041;28;20037;-78
2021/10/13 07:10:33;;;;;;;24.63;11.40;;;;;;;5.33;100.00;96034.91;5048498;28;20127;-77
2021/10/13 07:12:59;;;;;;;22.17;11.15;;;;;;;5.35;100.00;96032.88;5049847;28;20045;-77
2021/10/13 07:15:25;;;;;;;22.75;11.10;;;;;;;5.24;100.00;96040.66;5031629;28;20048;-78
2021/10/13 07:17:51;;;;;;;21.38;10.70;;;;;;;5.17;100.00;96045.97;5052567;28;20045;-80
2021/10/13 07:20:16;;;;;;;21.88;9.48;;;;;;;5.38;100.00;96058.50;5054548;28;20049;-80
2021/10/13 07:22:42;;;;;;;19.88;9.68;;;;;;;5.35;100.00;96052.97;5052859;28;20422;-80
2021/10/13 07:25:09;;;;;;;21.27;10.27;;;;;;;5.30;100.00;96061.47;5035163;28;20487;-78
2021/10/13 07:27:36;;;;;;;22.67;10.10;;;;;;;5.18;100.00;96063.22;5042751;28;20467;-78
2021/10/13 07:30:04;;;;;;;19.63;8.98;;;;;;;5.23;100.00;96065.16;5053037;28;20061;-78
2021/10/13 07:32:34;;;;;;;19.70;10.13;;;;;;;5.26;100.00;96062.91;5051262;28;20036;-79
2021/10/13 07:35:00;;;;;;;22.23;11.15;;;;;;;5.19;100.00;96064.81;5052159;28;20521;-78
2021/10/13 07:37:27;;;;;;;24.90;11.50;;;;;;;5.35;100.00;96064.19;5052082;28;20049;-78
2021/10/13 07:39:54;;;;;;;28.27;11.40;;;;;;;5.54;100.00;96061.53;5029587;28;20072;-78
2021/10/13 07:42:20;;;;;;;21.90;11.20;;;;;;;5.59;100.00;96069.50;5035428;28;20044;-78
2021/10/13 07:44:46;;;;;;;22.40;10.70;;;;;;;5.43;100.00;96072.72;5049465;28;20037;-78
2021/10/13 07:47:11;;;;;;;22.98;10.23;;;;;;;5.51;100.00;96080.25;5052446;28;20075;-78
2021/10/13 07:49:38;;;;;;;17.73;9.45;;;;;;;5.52;100.00;96085.25;5041909;28;20052;-78
2021/10/13 07:52:05;;;;;;;20.70;10.73;;;;;;;5.60;100.00;96086.72;5050922;28;20072;-78
2021/10/13 07:54:31;;;;;;;21.83;10.80;;;;;;;5.55;100.00;96087.41;5051827;28;20048;-78
2021/10/13 07:56:57;;;;;;;18.92;10.27;;;;;;;5.68;100.00;96078.56;5027541;28;20065;-78
2021/10/13 07:59:22;;;;;;;22.60;10.95;;;;;;;5.81;100.00;96082.81;5044730;28;20064;-78
2021/10/13 08:01:48;;;;;;;17.70;10.07;;;;;;;5.87;100.00;96086.34;5050164;28;20049;-77
2021/10/13 08:04:14;;;;;;;18.33;9.52;;;;;;;5.84;100.00;96092.00;5047069;28;20045;-79
2021/10/13 08:06:39;;;;;;;15.80;9.48;;;;;;;5.95;100.00;96088.63;5042236;28;20072;-77
2021/10/13 08:09:05;;;;;;;19.23;8.85;;;;;;;6.05;96.96;96093.34;5045729;28;20723;-78
2021/10/13 08:11:31;;;;;;;18.52;10.32;;;;;;;5.99;99.50;96089.81;5052639;28;20076;-79
2021/10/13 08:13:56;;;;;;;17.05;8.98;;;;;;;5.89;99.40;96085.09;5051504;28;20086;-78
2021/10/13 08:16:22;;;;;;;17.70;9.57;;;;;;;6.01;99.78;96098.19;5032872;28;20514;-78
2021/10/13 08:18:48;;;;;;;22.13;11.23;;;;;;;6.04;100.00;96092.53;5050956;28;20048;-79
2021/10/13 08:21:13;;;;;;;18.88;9.13;;;;;;;6.21;98.42;96099.72;5050698;28;20041;-80
2021/10/13 08:23:39;;;;;;;26.35;9.38;;;;;;;6.03;100.00;96093.56;5051291;28;20491;-80
2021/10/13 08:26:04;;;;;;;20.67;9.63;;;;;;;6.01;97.78;96100.81;5034779;28;20049;-82
2021/10/13 08:28:30;;;;;;;19.42;9.63;;;;;;;6.19;99.34;96094.72;5048930;28;20124;-79
2021/10/13 08:30:57;;;;;;;16.45;8.18;;;;;;;6.12;96.45;96101.03;5051388;28;20494;-79
2021/10/13 08:33:23;;;;;;;14.68;7.40;;;;;;;5.95;97.92;96093.84;5048013;28;20525;-80
2021/10/13 08:35:49;;;;;;;15.50;7.47;;;;;;;6.05;98.29;96104.56;5048161;28;20417;-80
2021/10/13 08:38:15;;;;;;;15.25;7.65;;;;;;;5.83;98.35;96116.53;5050538;28;20036;-78
2021/10/13 08:40:41;;;;;;;14.35;7.45;;;;;;;5.80;100.00;96111.75;5032097;28;20052;-79
2021/10/13 08:43:07;;;;;;;16.80;7.47;;;;;;;5.67;98.29;96121.38;5041535;28;20427;-79
2021/10/13 08:45:35;;;;;;;15.88;6.38;;;;;;;5.72;98.78;96116.28;5036683;28;20131;-79
2021/10/13 08:48:03;;;;;;;13.93;5.72;;;;;;;5.78;96.47;96124.25;5036868;28;20079;-79
2021/10/13 08:50:30;;;;;;;14.35;6.35;;;;;;;5.81;100.00;96114.16;5034450;28;20720;-78
2021/10/13 08:53:07;;;;;;;13.32;6.32;;;;;;;5.72;98.70;96118.91;5050860;28;20051;-79
2021/10/13 08:55:34;;;;;;;15.20;7.65;;;;;;;5.73;100.00;96122.28;5046539;28;20122;-78
2021/10/13 08:58:18;;;;;;;14.48;6.60;;;;;;;5.83;99.27;96126.97;5050859;28;20049;-78
2021/10/13 09:00:46;;;;;;;16.67;8.30;;;;;;;5.81;98.67;96118.59;5039656;28;20067;-78
2021/10/13 09:03:32;;;;;;;17.08;7.05;;;;;;;5.94;97.90;96107.94;5046226;28;20460;-77
2021/10/13 09:06:12;;;;;;;13.45;7.03;;;;;;;6.17;98.00;96116.84;5054079;28;20071;-79
2021/10/13 09:08:57;;;;;;;15.10;6.43;;;;;;;6.26;96.14;96107.66;5051409;28;20060;-80
2021/10/13 09:11:30;;;;;;;11.95;6.45;;;;;;;6.19;97.40;96120.84;5028090;28;20444;-78
2021/10/13 09:14:17;;;;;;;12.98;6.57;;;;;;;6.11;94.08;96117.78;5051797;28;20403;-78
2021/10/13 09:17:04;;;;;;;11.73;5.70;;;;;;;6.18;97.15;96118.47;5049683;28;20079;-79
2021/10/13 09:19:50;;;;;;;12.50;6.55;;;;;;;6.30;99.95;96121.84;5045840;28;20049;-80
2021/10/13 09:22:18;;;;;;;13.00;6.38;;;;;;;6.41;96.91;96113.22;5037572;28;20036;-79
2021/10/13 09:24:49;;;;;;;11.75;6.20;;;;;;;6.56;94.23;96109.34;5028316;28;20103;-80
2021/10/13 09:27:18;;;;;;;10.27;5.43;;;;;;;6.66;90.64;96109.56;5046404;28;20045;-80
2021/10/13 09:29:44;;;;;;;12.75;6.10;;;;;;;6.94;94.32;96115.91;5050174;28;20048;-78
2021/10/13 09:32:10;;;;;;;11.70;6.85;;;;;;;7.24;96.70;96117.53;5037683;28;20108;-79
2021/10/13 09:34:44;;;;;;;15.38;6.20;;;;;;;7.36;90.48;96109.66;5047025;28;20044;-78
2021/10/13 09:37:09;;;;;;;14.55;5.60;;;;;;;7.42;88.87;96117.34;5044779;28;20052;-79
2021/10/13 09:39:37;;;;;;;9.35;5.32;;;;;;;6.85;89.04;96114.66;5051932;28;20065;-78
2021/10/13 09:42:10;;;;;;;13.10;5.95;;;;;;;6.51;92.72;96111.88;5059922;28;20432;-79
2021/10/13 09:44:35;;;;;;;15.43;6.57;;;;;;;6.56;93.24;96119.81;5041417;28;20094;-78
2021/10/13 09:47:07;;;;;;;10.93;6.07;;;;;;;6.47;95.09;96118.59;5048103;28;20061;-79
2021/10/13 09:49:38;;;;;;;9.05;5.20;;;;;;;6.44;95.23;96132.09;5049973;28;20066;-80
2021/10/13 09:52:10;;;;;;;11.98;4.97;;;;;;;6.44;93.71;96126.84;5039974;28;20064;-81
2021/10/13 09:54:38;;;;;;;11.30;5.70;;;;;;;6.18;98.31;96131.53;5047377;28;20049;-77
2021/10/13 09:57:39;;;;;;;11.25;5.57;;;;;;;6.22;96.92;96130.03;5059837;28;20111;-78
2021/10/13 10:00:05;;;;;;;15.15;5.70;;;;;;;6.24;97.38;96128.00;5039870;28;20061;-79
2021/10/13 10:02:46;;;;;;;15.68;6.97;;;;;;;6.27;97.42;96124.94;5041038;28;20179;-77
2021/10/13 10:05:16;;;;;;;14.43;6.80;;;;;;;6.36;96.63;96136.63;5042168;28;20048;-78
2021/10/13 10:07:45;;;;;;;12.60;6.57;;;;;;;6.57;96.05;96131.88;5048833;28;20043;-77
2021/10/13 10:10:14;;;;;;;14.40;7.30;;;;;;;6.50;96.28;96134.59;5053572;28;20414;-78
2021/10/13 10:13:01;;;;;;;19.20;7.75;;;;;;;7.00;96.61;96130.69;5030099;28;20045;-78
2021/10/13 10:15:29;;;;;;;17.75;8.65;;;;;;;7.58;92.40;96128.09;5014828;28;20068;-77
2021/10/13 10:17:55;;;;;;;15.77;6.97;;;;;;;8.49;85.22;96116.72;5029051;28;20068;-78
2021/10/13 10:20:40;;;;;;;12.90;7.40;;;;;;;8.55;86.83;96117.59;5032271;28;20053;-78
2021/10/13 10:23:27;;;;;;;12.57;7.15;;;;;;;8.44;87.39;96117.47;5028231;28;20063;-77
2021/10/13 10:25:55;;;;;;;15.88;8.27;;;;;;;8.04;92.86;96118.41;5032453;28;20041;-78
2021/10/13 10:28:45;;;;;;;17.73;7.53;;;;;;;7.53;90.53;96122.75;5018332;28;20037;-78
2021/10/13 10:31:29;;;;;;;11.35;6.20;;;;;;;7.20;89.79;96121.66;5048121;28;20052;-78
2021/10/13 10:34:17;;;;;;;10.73;5.80;;;;;;;7.14;89.71;96127.78;5037473;28;20038;-79
2021/10/13 10:36:42;;;;;;;14.43;6.40;;;;;;;7.15;88.30;96126.78;5032797;28;20046;-78
2021/10/13 10:39:10;;;;;;;13.27;7.03;;;;;;;7.45;89.76;96127.34;5015525;28;20497;-78
2021/10/13 10:41:42;;;;;;;12.95;6.38;;;;;;;7.56;90.78;96127.56;5033887;28;20049;-78
2021/10/13 10:44:26;;;;;;;13.02;6.90;;;;;;;7.63;87.01;96122.97;5042811;28;20037;-80
2021/10/13 10:46:59;;;;;;;11.43;6.45;;;;;;;7.42;89.47;96127.81;5031575;28;20407;-78
2021/10/13 10:49:43;;;;;;;12.07;7.05;;;;;;;7.59;90.82;96120.00;5028198;28;20120;-77
2021/10/13 10:52:10;;;;;;;12.85;7.15;;;;;;;7.98;88.82;96122.75;5031551;28;20041;-78
2021/10/13 10:54:36;;;;;;;14.00;7.28;;;;;;;8.25;92.30;96113.50;5033644;28;20045;-78
2021/10/13 10:57:02;;;;;;;12.77;6.45;;;;;;;8.70;85.84;96112.56;5048189;28;20049;-78
2021/10/13 10:59:39;;;;;;;10.02;5.93;;;;;;;10.08;83.10;96112.47;5048050;28;20049;-78
2021/10/13 11:02:08;;;;;;;11.32;5.28;;;;;;;10.12;77.83;96103.03;5045955;28;20126;-77
2021/10/13 11:04:34;;;;;;;9.88;5.45;;;;;;;9.34;76.12;96103.38;5049353;28;20449;-80
2021/10/13 11:07:02;;;;;;;10.43;4.85;;;;;;;8.48;80.93;96110.72;5050440;28;20056;-77
2021/10/13 11:09:27;;;;;;;11.32;5.15;;;;;;;8.37;80.47;96122.06;5051838;28;20116;-78
2021/10/13 11:11:53;;;;;;;9.27;4.68;;;;;;;8.00;80.70;96117.28;5046747;28;20044;-78
2021/10/13 11:14:27;;;;;;;11.23;5.10;;;;;;;8.24;83.75;96117.16;5047697;28;20049;-78
2021/10/13 11:16:58;;;;;;;9.05;4.90;;;;;;;7.84;84.44;96124.09;5028086;28;20103;-78
2021/10/13 11:19:27;;;;;;;10.20;6.05;;;;;;;7.40;82.54;96118.63;5029526;28;20581;-80
2021/10/13 11:21:57;;;;;;;9.57;5.00;;;;;;;7.46;85.50;96128.94;5028106;28;20049;-78
2021/10/13 11:24:23;;;;;;;8.65;5.20;;;;;;;7.59;89.91;96124.47;5011738;28;20053;-78
2021/10/13 11:26:48;;;;;;;10.50;5.30;;;;;;;7.80;83.07;96129.03;5048289;28;20034;-77
2021/10/13 11:29:18;;;;;;;9.20;5.45;;;;;;;9.96;81.29;96119.75;5051499;28;20041;-78
2021/10/13 11:32:24;;;;;;;14.23;6.15;;;;;;;11.11;78.16;96115.75;5037061;28;20041;-86
2021/10/13 11:35:57;;;;;;;10.63;5.00;;;;;;;11.38;72.17;96091.09;5030401;28;20063;-82